sensor_id;sensor_type;location;lat;lon;timestamp;P1;durP1;ratioP1;P2;durP2;ratioP2
76433;SDS011;65265;53.200;6.080;2023-06-26T00:02:06;9.13;;;7.65;;
76433;SDS011;65265;53.200;6.080;2023-06-26T00:11:52;8.15;;;7.15;;
76433;SDS011;65265;53.200;6.080;2023-06-26T00:16:45;10.40;;;6.93;;
76433;SDS011;65265;53.200;6.080;2023-06-26T00:21:36;9.27;;;7.32;;
76433;SDS011;65265;53.200;6.080;2023-06-26T00:26:29;8.95;;;8.05;;
76433;SDS011;65265;53.200;6.080;2023-06-26T00:31:21;8.98;;;6.97;;
76433;SDS011;65265;53.200;6.080;2023-06-26T00:36:12;11.18;;;8.90;;
76433;SDS011;65265;53.200;6.080;2023-06-26T00:41:04;7.90;;;6.93;;
76433;SDS011;65265;53.200;6.080;2023-06-26T00:46:03;9.68;;;8.05;;
76433;SDS011;65265;53.200;6.080;2023-06-26T00:50:56;8.68;;;7.78;;
76433;SDS011;65265;53.200;6.080;2023-06-26T00:55:48;9.48;;;7.70;;
76433;SDS011;65265;53.200;6.080;2023-06-26T01:05:37;10.25;;;7.78;;
76433;SDS011;65265;53.200;6.080;2023-06-26T01:10:28;8.73;;;7.82;;
76433;SDS011;65265;53.200;6.080;2023-06-26T01:20:11;6.97;;;5.70;;
76433;SDS011;65265;53.200;6.080;2023-06-26T01:25:09;9.52;;;7.35;;
76433;SDS011;65265;53.200;6.080;2023-06-26T01:30:12;9.80;;;7.25;;
76433;SDS011;65265;53.200;6.080;2023-06-26T01:35:06;9.07;;;8.18;;
76433;SDS011;65265;53.200;6.080;2023-06-26T01:40:00;8.85;;;7.55;;
76433;SDS011;65265;53.200;6.080;2023-06-26T01:44:51;7.68;;;6.63;;
76433;SDS011;65265;53.200;6.080;2023-06-26T01:49:49;8.38;;;6.57;;
76433;SDS011;65265;53.200;6.080;2023-06-26T01:54:47;7.85;;;5.93;;
76433;SDS011;65265;53.200;6.080;2023-06-26T01:59:44;9.02;;;7.88;;
76433;SDS011;65265;53.200;6.080;2023-06-26T02:04:40;8.15;;;7.18;;
76433;SDS011;65265;53.200;6.080;2023-06-26T02:09:35;11.13;;;7.70;;
76433;SDS011;65265;53.200;6.080;2023-06-26T02:14:27;9.43;;;6.75;;
76433;SDS011;65265;53.200;6.080;2023-06-26T02:19:20;8.45;;;7.55;;
76433;SDS011;65265;53.200;6.080;2023-06-26T02:24:12;9.20;;;8.27;;
76433;SDS011;65265;53.200;6.080;2023-06-26T02:29:07;9.93;;;8.57;;
76433;SDS011;65265;53.200;6.080;2023-06-26T02:33:59;9.00;;;8.10;;
76433;SDS011;65265;53.200;6.080;2023-06-26T02:38:52;10.15;;;7.88;;
76433;SDS011;65265;53.200;6.080;2023-06-26T02:43:46;8.43;;;7.50;;
76433;SDS011;65265;53.200;6.080;2023-06-26T02:48:42;11.15;;;8.10;;
76433;SDS011;65265;53.200;6.080;2023-06-26T02:53:35;10.52;;;9.30;;
76433;SDS011;65265;53.200;6.080;2023-06-26T02:58:27;12.40;;;10.57;;
76433;SDS011;65265;53.200;6.080;2023-06-26T03:03:20;13.07;;;10.50;;
76433;SDS011;65265;53.200;6.080;2023-06-26T03:08:17;13.63;;;10.48;;
76433;SDS011;65265;53.200;6.080;2023-06-26T03:13:09;9.38;;;7.00;;
76433;SDS011;65265;53.200;6.080;2023-06-26T03:18:02;15.23;;;12.00;;
76433;SDS011;65265;53.200;6.080;2023-06-26T03:22:55;12.20;;;10.57;;
76433;SDS011;65265;53.200;6.080;2023-06-26T03:27:54;12.05;;;9.88;;
76433;SDS011;65265;53.200;6.080;2023-06-26T03:32:46;11.23;;;9.60;;
76433;SDS011;65265;53.200;6.080;2023-06-26T03:37:39;13.23;;;10.10;;
76433;SDS011;65265;53.200;6.080;2023-06-26T03:42:32;10.93;;;9.00;;
76433;SDS011;65265;53.200;6.080;2023-06-26T03:47:27;11.32;;;8.07;;
76433;SDS011;65265;53.200;6.080;2023-06-26T03:52:19;12.55;;;8.10;;
76433;SDS011;65265;53.200;6.080;2023-06-26T03:57:12;8.23;;;7.15;;
76433;SDS011;65265;53.200;6.080;2023-06-26T04:02:05;13.00;;;7.72;;
76433;SDS011;65265;53.200;6.080;2023-06-26T04:07:00;13.70;;;8.85;;
76433;SDS011;65265;53.200;6.080;2023-06-26T04:11:53;14.05;;;8.35;;
76433;SDS011;65265;53.200;6.080;2023-06-26T04:21:36;12.98;;;9.32;;
76433;SDS011;65265;53.200;6.080;2023-06-26T04:26:35;15.00;;;9.65;;
76433;SDS011;65265;53.200;6.080;2023-06-26T04:31:27;13.70;;;8.68;;
76433;SDS011;65265;53.200;6.080;2023-06-26T04:36:18;14.50;;;9.50;;
76433;SDS011;65265;53.200;6.080;2023-06-26T04:41:11;17.85;;;10.65;;
76433;SDS011;65265;53.200;6.080;2023-06-26T04:46:08;20.10;;;8.82;;
76433;SDS011;65265;53.200;6.080;2023-06-26T04:51:00;13.02;;;8.00;;
76433;SDS011;65265;53.200;6.080;2023-06-26T04:55:52;13.02;;;6.25;;
76433;SDS011;65265;53.200;6.080;2023-06-26T05:00:43;12.30;;;6.43;;
76433;SDS011;65265;53.200;6.080;2023-06-26T05:05:36;14.60;;;5.03;;
76433;SDS011;65265;53.200;6.080;2023-06-26T05:10:28;12.15;;;4.88;;
76433;SDS011;65265;53.200;6.080;2023-06-26T05:15:19;11.07;;;4.80;;
76433;SDS011;65265;53.200;6.080;2023-06-26T05:20:11;15.75;;;4.88;;
76433;SDS011;65265;53.200;6.080;2023-06-26T05:25:05;10.75;;;3.80;;
76433;SDS011;65265;53.200;6.080;2023-06-26T05:29:59;9.77;;;4.25;;
76433;SDS011;65265;53.200;6.080;2023-06-26T05:34:51;13.70;;;3.88;;
76433;SDS011;65265;53.200;6.080;2023-06-26T05:39:46;12.43;;;4.00;;
76433;SDS011;65265;53.200;6.080;2023-06-26T05:44:40;8.77;;;3.45;;
76433;SDS011;65265;53.200;6.080;2023-06-26T05:49:32;13.20;;;2.25;;
76433;SDS011;65265;53.200;6.080;2023-06-26T05:54:24;11.80;;;2.53;;
76433;SDS011;65265;53.200;6.080;2023-06-26T05:59:16;12.88;;;3.15;;
76433;SDS011;65265;53.200;6.080;2023-06-26T06:04:10;8.95;;;3.10;;
76433;SDS011;65265;53.200;6.080;2023-06-26T06:09:01;12.38;;;3.17;;
76433;SDS011;65265;53.200;6.080;2023-06-26T06:13:53;9.38;;;2.28;;
76433;SDS011;65265;53.200;6.080;2023-06-26T06:18:44;10.27;;;2.65;;
76433;SDS011;65265;53.200;6.080;2023-06-26T06:23:40;9.45;;;2.38;;
76433;SDS011;65265;53.200;6.080;2023-06-26T06:28:32;7.78;;;2.63;;
76433;SDS011;65265;53.200;6.080;2023-06-26T06:33:23;7.65;;;2.10;;
76433;SDS011;65265;53.200;6.080;2023-06-26T06:38:15;4.82;;;1.48;;
76433;SDS011;65265;53.200;6.080;2023-06-26T06:43:09;5.28;;;1.45;;
76433;SDS011;65265;53.200;6.080;2023-06-26T06:48:02;5.97;;;1.60;;
76433;SDS011;65265;53.200;6.080;2023-06-26T06:52:57;5.47;;;1.77;;
76433;SDS011;65265;53.200;6.080;2023-06-26T06:57:49;4.93;;;1.67;;
76433;SDS011;65265;53.200;6.080;2023-06-26T07:02:45;4.53;;;1.30;;
76433;SDS011;65265;53.200;6.080;2023-06-26T07:07:38;8.88;;;1.60;;
76433;SDS011;65265;53.200;6.080;2023-06-26T07:12:30;6.03;;;2.35;;
76433;SDS011;65265;53.200;6.080;2023-06-26T07:17:23;3.80;;;1.75;;
76433;SDS011;65265;53.200;6.080;2023-06-26T07:22:18;4.07;;;2.10;;
76433;SDS011;65265;53.200;6.080;2023-06-26T07:27:11;3.42;;;1.25;;
76433;SDS011;65265;53.200;6.080;2023-06-26T07:32:03;7.07;;;1.88;;
76433;SDS011;65265;53.200;6.080;2023-06-26T07:36:54;2.75;;;1.00;;
76433;SDS011;65265;53.200;6.080;2023-06-26T07:41:47;3.22;;;1.23;;
76433;SDS011;65265;53.200;6.080;2023-06-26T07:46:38;4.70;;;1.67;;
76433;SDS011;65265;53.200;6.080;2023-06-26T07:51:30;3.47;;;1.98;;
76433;SDS011;65265;53.200;6.080;2023-06-26T07:56:22;5.30;;;1.50;;
76433;SDS011;65265;53.200;6.080;2023-06-26T08:01:16;3.63;;;1.55;;
76433;SDS011;65265;53.200;6.080;2023-06-26T08:06:08;3.13;;;1.20;;
76433;SDS011;65265;53.200;6.080;2023-06-26T08:11:03;3.60;;;1.67;;
76433;SDS011;65265;53.200;6.080;2023-06-26T08:15:55;5.28;;;1.52;;
76433;SDS011;65265;53.200;6.080;2023-06-26T08:20:49;4.05;;;1.58;;
76433;SDS011;65265;53.200;6.080;2023-06-26T08:25:41;4.80;;;1.25;;
76433;SDS011;65265;53.200;6.080;2023-06-26T08:30:33;5.03;;;1.40;;
76433;SDS011;65265;53.200;6.080;2023-06-26T08:35:25;4.20;;;1.50;;
76433;SDS011;65265;53.200;6.080;2023-06-26T08:40:20;3.75;;;1.08;;
76433;SDS011;65265;53.200;6.080;2023-06-26T08:45:13;7.13;;;1.30;;
76433;SDS011;65265;53.200;6.080;2023-06-26T08:50:07;5.88;;;2.20;;
76433;SDS011;65265;53.200;6.080;2023-06-26T08:55:01;7.35;;;1.67;;
76433;SDS011;65265;53.200;6.080;2023-06-26T09:00:03;3.65;;;1.77;;
76433;SDS011;65265;53.200;6.080;2023-06-26T09:04:58;6.10;;;1.77;;
76433;SDS011;65265;53.200;6.080;2023-06-26T09:09:51;5.50;;;2.13;;
76433;SDS011;65265;53.200;6.080;2023-06-26T09:14:44;5.28;;;2.03;;
76433;SDS011;65265;53.200;6.080;2023-06-26T09:19:40;4.78;;;2.10;;
76433;SDS011;65265;53.200;6.080;2023-06-26T09:24:37;7.53;;;2.33;;
76433;SDS011;65265;53.200;6.080;2023-06-26T09:29:30;5.68;;;1.95;;
76433;SDS011;65265;53.200;6.080;2023-06-26T09:34:30;4.40;;;1.98;;
76433;SDS011;65265;53.200;6.080;2023-06-26T09:39:30;2.97;;;1.77;;
76433;SDS011;65265;53.200;6.080;2023-06-26T09:44:23;4.78;;;2.67;;
76433;SDS011;65265;53.200;6.080;2023-06-26T09:49:16;3.63;;;1.77;;
76433;SDS011;65265;53.200;6.080;2023-06-26T09:54:09;5.50;;;2.80;;
76433;SDS011;65265;53.200;6.080;2023-06-26T09:59:05;6.07;;;2.92;;
76433;SDS011;65265;53.200;6.080;2023-06-26T10:08:51;3.97;;;2.38;;
76433;SDS011;65265;53.200;6.080;2023-06-26T10:13:45;3.78;;;2.67;;
76433;SDS011;65265;53.200;6.080;2023-06-26T10:18:40;7.75;;;1.77;;
76433;SDS011;65265;53.200;6.080;2023-06-26T10:23:37;5.07;;;2.20;;
76433;SDS011;65265;53.200;6.080;2023-06-26T10:28:32;5.68;;;2.05;;
76433;SDS011;65265;53.200;6.080;2023-06-26T10:33:28;4.07;;;1.70;;
76433;SDS011;65265;53.200;6.080;2023-06-26T10:38:24;8.35;;;0.60;;
76433;SDS011;65265;53.200;6.080;2023-06-26T10:43:41;2.88;;;0.98;;
76433;SDS011;65265;53.200;6.080;2023-06-26T10:48:48;4.10;;;1.35;;
76433;SDS011;65265;53.200;6.080;2023-06-26T10:53:52;3.03;;;0.73;;
76433;SDS011;65265;53.200;6.080;2023-06-26T10:58:47;4.18;;;1.20;;
76433;SDS011;65265;53.200;6.080;2023-06-26T11:03:41;4.55;;;0.57;;
76433;SDS011;65265;53.200;6.080;2023-06-26T11:08:43;3.70;;;1.05;;
76433;SDS011;65265;53.200;6.080;2023-06-26T11:13:41;2.92;;;0.75;;
76433;SDS011;65265;53.200;6.080;2023-06-26T11:18:38;4.20;;;0.73;;
76433;SDS011;65265;53.200;6.080;2023-06-26T11:23:31;8.02;;;0.93;;
76433;SDS011;65265;53.200;6.080;2023-06-26T11:28:25;3.97;;;1.40;;
76433;SDS011;65265;53.200;6.080;2023-06-26T11:33:26;5.28;;;1.27;;
76433;SDS011;65265;53.200;6.080;2023-06-26T11:38:21;3.28;;;1.05;;
76433;SDS011;65265;53.200;6.080;2023-06-26T11:43:14;4.28;;;0.80;;
76433;SDS011;65265;53.200;6.080;2023-06-26T11:48:08;4.88;;;1.63;;
76433;SDS011;65265;53.200;6.080;2023-06-26T11:53:03;7.43;;;1.15;;
76433;SDS011;65265;53.200;6.080;2023-06-26T11:57:57;5.05;;;1.15;;
76433;SDS011;65265;53.200;6.080;2023-06-26T12:02:51;4.50;;;1.17;;
76433;SDS011;65265;53.200;6.080;2023-06-26T12:07:45;5.55;;;1.05;;
76433;SDS011;65265;53.200;6.080;2023-06-26T12:12:42;4.70;;;0.75;;
76433;SDS011;65265;53.200;6.080;2023-06-26T12:17:37;6.15;;;0.60;;
76433;SDS011;65265;53.200;6.080;2023-06-26T12:22:33;5.35;;;1.02;;
76433;SDS011;65265;53.200;6.080;2023-06-26T12:27:27;3.65;;;1.20;;
76433;SDS011;65265;53.200;6.080;2023-06-26T12:32:31;5.57;;;1.40;;
76433;SDS011;65265;53.200;6.080;2023-06-26T12:37:23;3.28;;;1.45;;
76433;SDS011;65265;53.200;6.080;2023-06-26T12:42:17;5.68;;;1.23;;
76433;SDS011;65265;53.200;6.080;2023-06-26T12:47:12;4.32;;;0.80;;
76433;SDS011;65265;53.200;6.080;2023-06-26T12:52:10;4.75;;;1.10;;
76433;SDS011;65265;53.200;6.080;2023-06-26T12:57:05;6.72;;;0.63;;
76433;SDS011;65265;53.200;6.080;2023-06-26T13:02:00;3.78;;;1.17;;
76433;SDS011;65265;53.200;6.080;2023-06-26T13:06:55;2.97;;;0.60;;
76433;SDS011;65265;53.200;6.080;2023-06-26T13:11:51;4.90;;;1.27;;
76433;SDS011;65265;53.200;6.080;2023-06-26T13:16:47;2.97;;;1.63;;
76433;SDS011;65265;53.200;6.080;2023-06-26T13:21:40;5.03;;;1.17;;
76433;SDS011;65265;53.200;6.080;2023-06-26T13:26:34;4.47;;;0.75;;
76433;SDS011;65265;53.200;6.080;2023-06-26T13:31:31;4.70;;;0.73;;
76433;SDS011;65265;53.200;6.080;2023-06-26T13:36:23;6.97;;;1.63;;
76433;SDS011;65265;53.200;6.080;2023-06-26T13:41:18;2.00;;;0.20;;
76433;SDS011;65265;53.200;6.080;2023-06-26T13:46:12;5.75;;;0.93;;
76433;SDS011;65265;53.200;6.080;2023-06-26T13:51:08;4.00;;;1.23;;
76433;SDS011;65265;53.200;6.080;2023-06-26T13:56:04;4.00;;;0.70;;
76433;SDS011;65265;53.200;6.080;2023-06-26T14:00:58;4.55;;;1.20;;
76433;SDS011;65265;53.200;6.080;2023-06-26T14:05:52;4.53;;;1.60;;
76433;SDS011;65265;53.200;6.080;2023-06-26T14:10:47;6.95;;;1.13;;
76433;SDS011;65265;53.200;6.080;2023-06-26T14:15:39;4.05;;;1.13;;
76433;SDS011;65265;53.200;6.080;2023-06-26T14:20:32;4.97;;;1.42;;
76433;SDS011;65265;53.200;6.080;2023-06-26T14:25:26;5.68;;;1.20;;
76433;SDS011;65265;53.200;6.080;2023-06-26T14:30:23;4.20;;;1.00;;
76433;SDS011;65265;53.200;6.080;2023-06-26T14:35:15;2.88;;;0.77;;
76433;SDS011;65265;53.200;6.080;2023-06-26T14:40:09;5.18;;;0.98;;
76433;SDS011;65265;53.200;6.080;2023-06-26T14:45:03;4.20;;;1.02;;
76433;SDS011;65265;53.200;6.080;2023-06-26T14:50:00;3.65;;;1.10;;
76433;SDS011;65265;53.200;6.080;2023-06-26T14:54:53;5.53;;;0.82;;
76433;SDS011;65265;53.200;6.080;2023-06-26T14:59:48;4.15;;;1.15;;
76433;SDS011;65265;53.200;6.080;2023-06-26T15:04:41;5.28;;;1.25;;
76433;SDS011;65265;53.200;6.080;2023-06-26T15:09:40;5.65;;;1.13;;
76433;SDS011;65265;53.200;6.080;2023-06-26T15:14:32;4.72;;;0.93;;
76433;SDS011;65265;53.200;6.080;2023-06-26T15:19:27;5.30;;;1.08;;
76433;SDS011;65265;53.200;6.080;2023-06-26T15:24:23;3.58;;;0.35;;
76433;SDS011;65265;53.200;6.080;2023-06-26T15:29:18;9.32;;;1.15;;
76433;SDS011;65265;53.200;6.080;2023-06-26T15:34:10;3.30;;;0.98;;
76433;SDS011;65265;53.200;6.080;2023-06-26T15:39:03;5.07;;;1.40;;
76433;SDS011;65265;53.200;6.080;2023-06-26T15:43:56;6.20;;;0.90;;
76433;SDS011;65265;53.200;6.080;2023-06-26T15:48:52;4.90;;;1.00;;
76433;SDS011;65265;53.200;6.080;2023-06-26T15:53:45;5.57;;;1.40;;
76433;SDS011;65265;53.200;6.080;2023-06-26T15:58:39;3.97;;;0.93;;
76433;SDS011;65265;53.200;6.080;2023-06-26T16:03:35;2.80;;;0.82;;
76433;SDS011;65265;53.200;6.080;2023-06-26T16:08:29;1.88;;;0.98;;
76433;SDS011;65265;53.200;6.080;2023-06-26T16:13:23;4.32;;;0.80;;
76433;SDS011;65265;53.200;6.080;2023-06-26T16:18:17;5.32;;;1.02;;
76433;SDS011;65265;53.200;6.080;2023-06-26T16:23:10;1.85;;;0.60;;
76433;SDS011;65265;53.200;6.080;2023-06-26T16:28:06;6.53;;;1.25;;
76433;SDS011;65265;53.200;6.080;2023-06-26T16:32:58;1.73;;;0.65;;
76433;SDS011;65265;53.200;6.080;2023-06-26T16:37:51;5.40;;;0.50;;
76433;SDS011;65265;53.200;6.080;2023-06-26T16:42:45;4.15;;;0.98;;
76433;SDS011;65265;53.200;6.080;2023-06-26T16:47:41;2.45;;;0.90;;
76433;SDS011;65265;53.200;6.080;2023-06-26T16:52:35;4.50;;;1.05;;
76433;SDS011;65265;53.200;6.080;2023-06-26T16:57:28;3.20;;;0.63;;
76433;SDS011;65265;53.200;6.080;2023-06-26T17:02:21;3.22;;;0.68;;
76433;SDS011;65265;53.200;6.080;2023-06-26T17:07:18;3.28;;;0.52;;
76433;SDS011;65265;53.200;6.080;2023-06-26T17:12:11;3.95;;;1.08;;
76433;SDS011;65265;53.200;6.080;2023-06-26T17:17:06;2.88;;;0.52;;
76433;SDS011;65265;53.200;6.080;2023-06-26T17:21:59;6.80;;;1.42;;
76433;SDS011;65265;53.200;6.080;2023-06-26T17:26:55;4.82;;;1.00;;
76433;SDS011;65265;53.200;6.080;2023-06-26T17:32:00;6.13;;;1.60;;
76433;SDS011;65265;53.200;6.080;2023-06-26T17:36:53;5.43;;;0.93;;
76433;SDS011;65265;53.200;6.080;2023-06-26T17:41:46;7.25;;;0.93;;
76433;SDS011;65265;53.200;6.080;2023-06-26T17:46:40;5.18;;;1.20;;
76433;SDS011;65265;53.200;6.080;2023-06-26T17:51:33;8.63;;;1.65;;
76433;SDS011;65265;53.200;6.080;2023-06-26T17:56:27;5.85;;;1.80;;
76433;SDS011;65265;53.200;6.080;2023-06-26T18:01:20;4.97;;;0.73;;
76433;SDS011;65265;53.200;6.080;2023-06-26T18:06:16;5.32;;;0.52;;
76433;SDS011;65265;53.200;6.080;2023-06-26T18:11:10;4.05;;;1.02;;
76433;SDS011;65265;53.200;6.080;2023-06-26T18:16:03;5.18;;;1.35;;
76433;SDS011;65265;53.200;6.080;2023-06-26T18:20:57;4.88;;;0.63;;
76433;SDS011;65265;53.200;6.080;2023-06-26T18:25:54;1.90;;;0.73;;
76433;SDS011;65265;53.200;6.080;2023-06-26T18:35:40;2.45;;;0.90;;
76433;SDS011;65265;53.200;6.080;2023-06-26T18:40:33;5.63;;;1.10;;
76433;SDS011;65265;53.200;6.080;2023-06-26T18:45:30;4.05;;;1.00;;
76433;SDS011;65265;53.200;6.080;2023-06-26T18:50:24;5.70;;;1.15;;
76433;SDS011;65265;53.200;6.080;2023-06-26T18:55:18;5.82;;;1.63;;
76433;SDS011;65265;53.200;6.080;2023-06-26T19:00:12;2.78;;;0.98;;
76433;SDS011;65265;53.200;6.080;2023-06-26T19:05:09;4.57;;;0.88;;
76433;SDS011;65265;53.200;6.080;2023-06-26T19:10:06;4.10;;;1.08;;
76433;SDS011;65265;53.200;6.080;2023-06-26T19:14:59;1.95;;;0.68;;
76433;SDS011;65265;53.200;6.080;2023-06-26T19:19:52;2.13;;;0.10;;
76433;SDS011;65265;53.200;6.080;2023-06-26T19:24:47;3.08;;;1.08;;
76433;SDS011;65265;53.200;6.080;2023-06-26T19:29:39;3.20;;;1.23;;
76433;SDS011;65265;53.200;6.080;2023-06-26T19:34:31;2.92;;;1.05;;
76433;SDS011;65265;53.200;6.080;2023-06-26T19:39:24;1.17;;;0.90;;
76433;SDS011;65265;53.200;6.080;2023-06-26T19:44:18;2.72;;;1.73;;
76433;SDS011;65265;53.200;6.080;2023-06-26T19:49:11;3.55;;;1.30;;
76433;SDS011;65265;53.200;6.080;2023-06-26T19:54:03;4.03;;;0.77;;
76433;SDS011;65265;53.200;6.080;2023-06-26T19:58:56;5.35;;;1.25;;
76433;SDS011;65265;53.200;6.080;2023-06-26T20:03:52;2.65;;;0.73;;
76433;SDS011;65265;53.200;6.080;2023-06-26T20:08:44;3.65;;;0.85;;
76433;SDS011;65265;53.200;6.080;2023-06-26T20:13:37;2.92;;;1.15;;
76433;SDS011;65265;53.200;6.080;2023-06-26T20:18:29;5.13;;;1.00;;
76433;SDS011;65265;53.200;6.080;2023-06-26T20:23:23;5.75;;;1.23;;
76433;SDS011;65265;53.200;6.080;2023-06-26T20:28:16;3.63;;;1.63;;
76433;SDS011;65265;53.200;6.080;2023-06-26T20:33:09;2.83;;;0.98;;
76433;SDS011;65265;53.200;6.080;2023-06-26T20:38:02;5.50;;;1.25;;
76433;SDS011;65265;53.200;6.080;2023-06-26T20:42:56;1.70;;;0.82;;
76433;SDS011;65265;53.200;6.080;2023-06-26T20:47:49;3.03;;;1.23;;
76433;SDS011;65265;53.200;6.080;2023-06-26T20:52:43;1.58;;;0.77;;
76433;SDS011;65265;53.200;6.080;2023-06-26T20:57:35;4.80;;;1.38;;
76433;SDS011;65265;53.200;6.080;2023-06-26T21:02:31;4.75;;;2.22;;
76433;SDS011;65265;53.200;6.080;2023-06-26T21:07:26;3.60;;;1.40;;
76433;SDS011;65265;53.200;6.080;2023-06-26T21:12:20;2.20;;;1.40;;
76433;SDS011;65265;53.200;6.080;2023-06-26T21:17:13;2.63;;;1.42;;
76433;SDS011;65265;53.200;6.080;2023-06-26T21:22:09;4.55;;;1.67;;
76433;SDS011;65265;53.200;6.080;2023-06-26T21:27:04;5.78;;;1.63;;
76433;SDS011;65265;53.200;6.080;2023-06-26T21:31:58;2.33;;;1.35;;
76433;SDS011;65265;53.200;6.080;2023-06-26T21:36:50;5.75;;;1.58;;
76433;SDS011;65265;53.200;6.080;2023-06-26T21:41:46;2.20;;;1.50;;
76433;SDS011;65265;53.200;6.080;2023-06-26T21:46:39;5.28;;;1.33;;
76433;SDS011;65265;53.200;6.080;2023-06-26T21:51:32;3.85;;;2.42;;
76433;SDS011;65265;53.200;6.080;2023-06-26T21:56:26;4.25;;;1.35;;
76433;SDS011;65265;53.200;6.080;2023-06-26T22:01:22;3.28;;;2.05;;
76433;SDS011;65265;53.200;6.080;2023-06-26T22:06:15;4.03;;;1.65;;
76433;SDS011;65265;53.200;6.080;2023-06-26T22:11:09;3.95;;;2.28;;
76433;SDS011;65265;53.200;6.080;2023-06-26T22:16:03;4.15;;;2.70;;
76433;SDS011;65265;53.200;6.080;2023-06-26T22:21:04;6.00;;;2.67;;
76433;SDS011;65265;53.200;6.080;2023-06-26T22:26:02;7.78;;;3.10;;
76433;SDS011;65265;53.200;6.080;2023-06-26T22:30:54;4.10;;;2.80;;
76433;SDS011;65265;53.200;6.080;2023-06-26T22:40:42;5.05;;;2.97;;
76433;SDS011;65265;53.200;6.080;2023-06-26T22:45:35;2.35;;;2.08;;
76433;SDS011;65265;53.200;6.080;2023-06-26T22:50:29;6.38;;;2.95;;
76433;SDS011;65265;53.200;6.080;2023-06-26T22:55:22;5.95;;;2.53;;
76433;SDS011;65265;53.200;6.080;2023-06-26T23:00:16;5.90;;;3.08;;
76433;SDS011;65265;53.200;6.080;2023-06-26T23:05:11;5.18;;;2.97;;
76433;SDS011;65265;53.200;6.080;2023-06-26T23:10:05;4.72;;;3.42;;
76433;SDS011;65265;53.200;6.080;2023-06-26T23:14:59;4.72;;;4.32;;
76433;SDS011;65265;53.200;6.080;2023-06-26T23:19:54;6.75;;;3.58;;
76433;SDS011;65265;53.200;6.080;2023-06-26T23:24:49;6.13;;;2.83;;
76433;SDS011;65265;53.200;6.080;2023-06-26T23:29:41;5.22;;;3.67;;
76433;SDS011;65265;53.200;6.080;2023-06-26T23:34:35;3.67;;;3.30;;
76433;SDS011;65265;53.200;6.080;2023-06-26T23:39:32;5.55;;;2.63;;
76433;SDS011;65265;53.200;6.080;2023-06-26T23:44:27;4.43;;;4.05;;
76433;SDS011;65265;53.200;6.080;2023-06-26T23:49:20;4.72;;;2.67;;
76433;SDS011;65265;53.200;6.080;2023-06-26T23:54:15;5.35;;;3.08;;
76433;SDS011;65265;53.200;6.080;2023-06-26T23:59:18;3.50;;;2.85;;
